Historyczne dane pomiarowe

Dodano dane terminowe – wersja testowa.

Dane z okresu 1951-2019

Wersja bazy: 1.34 [2019-03-16, lista zmian], aktualizacja planowana na 2019-04-15

Dane meteo z obszaru Polski uzyskane na podstawie danych udostępnionych przez Instytut Meteorologii i Gospodarki Wodnej – Państwowy Instytut Badawczy.

 

Wybierz Datę:    

       

TemperaturaWilgotnośćWiatrCiśnienieOpadyŚniegCzas trwania zjawisk
 Stacja t tx tn tng RH VA  wxwx mslp ppp RRR   cm mm wxwxwxwxwxwxwx
1999-08-14 14.2 22.0 6.1 6.1 70.0- 3.7 1.3---- 0.0------------
1999-08-13 13.9 19.3 8.6 8.7 74.8- 4.7 1.0---- 0.0------------
1999-08-12 15.8 20.2 12.4 12.7 80.5- 6.3 1.0---- 0.0------------
1999-08-11 19.1 24.9 14.5 13.6 83.0- 5.0 1.3---- 13.2------------
1999-08-10 20.1 27.7 15.5 16.1 86.3- 4.0 1.3---- 6.5------------
1999-08-09 22.9 30.0 17.7 15.7 74.3- 2.0 1.0---- 3.5------------
1999-08-08 22.4 28.5 17.0 16.6 74.5- 1.7 2.0---- 0.0------------
1999-08-07 21.7 30.0 13.9 13.6 77.0- 3.7 1.7---- 0.4------------
1999-08-06 21.8 28.1 16.5 14.7 78.8- 2.7 1.3---- 5.7------------
1999-08-05 18.8 28.1 8.6 9.2 73.0- 3.0 1.0---- 0.2------------
1999-08-04 17.8 26.2 8.5 8.2 76.3- 0.7 0.7---- 0.0------------
1999-08-03 16.5 24.5 8.3 7.7 78.5- 2.0 1.7---- 0.0------------
1999-08-02 17.7 25.5 9.6 9.7 79.3- 2.0 1.3---- 0.0------------
1999-08-01 18.0 25.9 9.5 10.2 72.0- 1.0 2.3---- 0.0------------
1999-07-31 18.0 26.4 9.3 8.8 72.3- 1.7 1.7---- 0.0------------
1999-07-30 18.1 26.0 8.6 10.2 73.0- 1.7 1.7---- 0.0------------
1999-07-29 19.4 25.4 13.3 11.1 76.0- 1.3 2.0---- 0.0------------
1999-07-28 19.6 25.6 13.9 12.2 73.3- 2.7 1.3---- 0.0------------
1999-07-27 19.2 24.6 15.0 15.6 88.3- 4.7 1.0---- 0.0------------
1999-07-26 20.1 27.4 12.0 12.2 81.8- 2.7 1.3---- 0.0------------
1999-07-25 18.4 25.6 10.0 9.2 76.3- 0.7 1.3---- 0.0------------
1999-07-24 16.3 21.1 12.5 11.8 86.3- 6.7 1.3---- 0.0------------
1999-07-23 15.4 20.1 12.5 13.3 96.5- 6.7 1.0---- 17.3------------
1999-07-22 19.3 24.0 15.4 14.6 75.0- 4.3 2.7---- 3.8------------
1999-07-21 21.4 28.3 17.0 15.2 81.3- 4.3 2.3---- 2.6------------
1999-07-20 21.8 29.6 12.4 11.7 70.3- 0.3 1.7---- 0.2------------
1999-07-19 20.0 28.7 9.9 9.7 69.3- 1.3 1.0---- 0.0------------
1999-07-18 19.0 27.0 10.2 8.8 63.3- 0.3 1.3---- 0.0------------
1999-07-17 17.6 24.5 9.2 8.7 64.5- 0.7 1.7---- 0.0------------
1999-07-16 16.7 22.2 11.3 10.7 70.3- 3.3 1.0---- 0.0------------
1999-07-15 17.2 20.6 13.0 12.7 76.5- 6.7 1.7---- 2.7------------
1999-07-14 20.3 27.0 16.2 16.6 83.5- 5.0 2.3---- 1.4------------
1999-07-13 20.5 26.5 14.2 14.6 82.5- 6.7 1.7---- 13.1------------
1999-07-12 20.4 27.7 13.5 13.7 90.0- 3.0 1.0---- 0.2------------
1999-07-11 19.2 21.0 16.6 16.2 87.8- 5.3 1.3---- 4.6------------
1999-07-10 20.3 23.1 17.4 17.1 81.8- 4.3 6.3---- 0.0------------
1999-07-09 16.8 19.5 13.5 14.8 98.0- 8.0 1.3---- 3.2------------
1999-07-08 16.2 19.5 13.6 15.7 97.5- 8.0 1.3---- 9.1------------
1999-07-07 21.4 28.9 17.4 18.1 84.8- 6.7 1.7---- 31.8------------
1999-07-06 25.5 32.0 16.4 16.6 60.3- 0.0 2.3---- 0.0------------
1999-07-05 23.8 31.8 16.0 15.1 68.0- 0.3 1.0---- 0.0------------
1999-07-04 23.6 32.1 12.6 11.8 65.0- 0.0 2.0---- 0.0------------
1999-07-03 20.9 26.4 14.5 14.2 72.3- 0.7 1.0---- 0.0------------
1999-07-02 19.2 25.4 12.5 12.1 81.5- 4.0 1.0---- 0.0------------
1999-07-01 19.3 25.3 12.6 12.8 83.0- 2.7 1.0---- 0.0------------
1999-06-30 19.7 26.4 11.9 13.2 80.5- 1.7 1.0---- 0.0------------
1999-06-29 19.6 24.6 13.6 13.1 75.0- 1.3 1.0---- 0.0------------
1999-06-28 19.8 28.6 13.2 12.2 68.5- 2.3 2.0---- 16.8------------
1999-06-27 21.1 27.6 13.8 13.8 59.8- 2.7 2.0---- 0.0------------
1999-06-26 17.5 25.6 9.0 7.1 69.8- 2.7 1.3---- 0.0------------
1999-06-25 13.0 20.3 4.3 4.0 72.8- 0.0 1.0---- 0.0------------
1999-06-24 11.6 17.4 6.3 5.6 77.5- 4.3 1.3---- 0.0------------
1999-06-23 10.1 12.2 7.2 7.7 96.0- 8.0 1.3---- 1.7------------
1999-06-22 9.4 13.5 7.2 7.9 99.0- 8.0 2.0---- 43.7------------
1999-06-21 16.2 22.6 12.6 13.7 87.0- 5.3 2.3---- 47.9------------
1999-06-20 17.6 22.8 13.4 13.7 92.3- 6.3 1.0---- 0.0------------
1999-06-19 14.0 15.5 11.9 13.6 99.5- 8.0 1.0---- 0.1------------
1999-06-18 15.0 17.8 12.7 12.8 99.0- 8.0 1.0---- 36.0------------
1999-06-17 17.5 21.4 14.9 14.6 91.8- 7.3 1.0---- 24.9------------
1999-06-16 16.6 19.8 13.9 14.6 96.8- 8.0 1.0---- 0.2------------
544.0 ms

 

Źródłem pochodzenia danych jest Instytut Meteorologii i Gospodarki Wodnej – Państwowy Instytut Badawczy. Dane Instytutu Meteorologii i Gospodarki Wodnej – Państwowego Instytutu Badawczego zostały przetworzone.

Dane źródłowe można odnaleźć na stronie https://dane.imgw.pl